sensor_id;sensor_type;location;lat;lon;timestamp;P1;durP1;ratioP1;P2;durP2;ratioP2
47856;SDS011;33618;49.972;8.242;2023-07-29T05:51:22;4.00;;;3.70;;
47856;SDS011;33618;49.972;8.242;2023-07-29T05:53:49;4.75;;;3.42;;
47856;SDS011;33618;49.972;8.242;2023-07-29T05:56:15;20.23;;;4.13;;
47856;SDS011;33618;49.972;8.242;2023-07-29T05:58:42;19.42;;;4.22;;
47856;SDS011;33618;49.972;8.242;2023-07-29T06:01:10;6.18;;;4.05;;
47856;SDS011;33618;49.972;8.242;2023-07-29T06:03:37;5.20;;;4.25;;
47856;SDS011;33618;49.972;8.242;2023-07-29T06:06:04;7.38;;;4.35;;
47856;SDS011;33618;49.972;8.242;2023-07-29T06:08:31;5.75;;;3.35;;
47856;SDS011;33618;49.972;8.242;2023-07-29T06:11:00;4.22;;;3.20;;
47856;SDS011;33618;49.972;8.242;2023-07-29T06:13:27;4.32;;;2.65;;
47856;SDS011;33618;49.972;8.242;2023-07-29T06:15:55;3.97;;;2.22;;
47856;SDS011;33618;49.972;8.242;2023-07-29T06:18:22;5.97;;;2.08;;
47856;SDS011;33618;49.972;8.242;2023-07-29T06:20:49;3.03;;;2.00;;
47856;SDS011;33618;49.972;8.242;2023-07-29T06:23:16;4.68;;;2.47;;
47856;SDS011;33618;49.972;8.242;2023-07-29T06:25:42;4.68;;;3.47;;
47856;SDS011;33618;49.972;8.242;2023-07-29T06:28:09;5.55;;;4.35;;
47856;SDS011;33618;49.972;8.242;2023-07-29T06:30:36;6.57;;;4.38;;
47856;SDS011;33618;49.972;8.242;2023-07-29T06:33:03;9.05;;;4.68;;
47856;SDS011;33618;49.972;8.242;2023-07-29T06:35:30;5.20;;;4.70;;
47856;SDS011;33618;49.972;8.242;2023-07-29T06:37:57;6.28;;;4.28;;
47856;SDS011;33618;49.972;8.242;2023-07-29T06:40:24;4.60;;;4.20;;
47856;SDS011;33618;49.972;8.242;2023-07-29T06:42:51;8.75;;;4.43;;
47856;SDS011;33618;49.972;8.242;2023-07-29T06:45:18;5.75;;;4.60;;
47856;SDS011;33618;49.972;8.242;2023-07-29T06:47:45;6.35;;;5.10;;
47856;SDS011;33618;49.972;8.242;2023-07-29T06:50:11;4.88;;;4.57;;
47856;SDS011;33618;49.972;8.242;2023-07-29T06:52:38;6.85;;;5.18;;
47856;SDS011;33618;49.972;8.242;2023-07-29T06:55:06;5.93;;;5.32;;
47856;SDS011;33618;49.972;8.242;2023-07-29T06:57:34;5.78;;;5.25;;
47856;SDS011;33618;49.972;8.242;2023-07-29T07:00:01;6.35;;;5.40;;
47856;SDS011;33618;49.972;8.242;2023-07-29T07:02:28;5.80;;;5.20;;
47856;SDS011;33618;49.972;8.242;2023-07-29T07:04:55;5.43;;;4.93;;
47856;SDS011;33618;49.972;8.242;2023-07-29T07:07:22;12.63;;;5.07;;
47856;SDS011;33618;49.972;8.242;2023-07-29T07:09:49;8.10;;;5.70;;
47856;SDS011;33618;49.972;8.242;2023-07-29T07:12:15;8.98;;;5.03;;
47856;SDS011;33618;49.972;8.242;2023-07-29T07:14:42;4.65;;;4.28;;
47856;SDS011;33618;49.972;8.242;2023-07-29T07:17:09;5.35;;;4.85;;
47856;SDS011;33618;49.972;8.242;2023-07-29T07:19:38;8.10;;;4.35;;
47856;SDS011;33618;49.972;8.242;2023-07-29T07:22:06;6.05;;;4.10;;
47856;SDS011;33618;49.972;8.242;2023-07-29T07:24:32;5.15;;;4.32;;
47856;SDS011;33618;49.972;8.242;2023-07-29T07:26:59;4.38;;;3.97;;
47856;SDS011;33618;49.972;8.242;2023-07-29T07:29:26;4.50;;;4.20;;
47856;SDS011;33618;49.972;8.242;2023-07-29T07:31:53;4.63;;;4.22;;
47856;SDS011;33618;49.972;8.242;2023-07-29T07:34:20;5.25;;;4.10;;
47856;SDS011;33618;49.972;8.242;2023-07-29T07:36:47;4.43;;;4.13;;
47856;SDS011;33618;49.972;8.242;2023-07-29T07:39:15;4.35;;;3.95;;
47856;SDS011;33618;49.972;8.242;2023-07-29T07:41:42;4.93;;;4.00;;
47856;SDS011;33618;49.972;8.242;2023-07-29T07:44:09;4.13;;;3.70;;
47856;SDS011;33618;49.972;8.242;2023-07-29T07:46:37;4.35;;;3.55;;
47856;SDS011;33618;49.972;8.242;2023-07-29T07:49:04;4.63;;;4.07;;
47856;SDS011;33618;49.972;8.242;2023-07-29T07:51:31;4.72;;;4.20;;
47856;SDS011;33618;49.972;8.242;2023-07-29T07:53:58;8.38;;;4.30;;
47856;SDS011;33618;49.972;8.242;2023-07-29T07:56:24;3.00;;;2.65;;
47856;SDS011;33618;49.972;8.242;2023-07-29T07:58:51;4.78;;;2.75;;
47856;SDS011;33618;49.972;8.242;2023-07-29T08:01:18;5.57;;;3.00;;
47856;SDS011;33618;49.972;8.242;2023-07-29T08:03:45;3.55;;;3.20;;
47856;SDS011;33618;49.972;8.242;2023-07-29T08:06:12;5.45;;;3.13;;
47856;SDS011;33618;49.972;8.242;2023-07-29T08:08:39;3.33;;;2.38;;
47856;SDS011;33618;49.972;8.242;2023-07-29T08:11:06;3.22;;;2.38;;
47856;SDS011;33618;49.972;8.242;2023-07-29T08:13:33;2.35;;;2.15;;
47856;SDS011;33618;49.972;8.242;2023-07-29T08:16:00;4.18;;;2.10;;
47856;SDS011;33618;49.972;8.242;2023-07-29T08:18:27;2.10;;;2.00;;
47856;SDS011;33618;49.972;8.242;2023-07-29T08:20:58;1.75;;;1.65;;
47856;SDS011;33618;49.972;8.242;2023-07-29T08:23:29;1.60;;;1.40;;
47856;SDS011;33618;49.972;8.242;2023-07-29T08:25:57;1.50;;;1.40;;
47856;SDS011;33618;49.972;8.242;2023-07-29T08:44:56;1.88;;;1.10;;
47856;SDS011;33618;49.972;8.242;2023-07-29T08:47:25;2.33;;;1.30;;
47856;SDS011;33618;49.972;8.242;2023-07-29T08:49:52;1.60;;;1.50;;
47856;SDS011;33618;49.972;8.242;2023-07-29T08:52:21;1.40;;;1.30;;
47856;SDS011;33618;49.972;8.242;2023-07-29T08:54:49;1.40;;;1.23;;
47856;SDS011;33618;49.972;8.242;2023-07-29T08:57:16;1.17;;;1.17;;
47856;SDS011;33618;49.972;8.242;2023-07-29T08:59:44;2.38;;;1.40;;
47856;SDS011;33618;49.972;8.242;2023-07-29T09:02:11;1.30;;;1.20;;
47856;SDS011;33618;49.972;8.242;2023-07-29T09:04:38;1.25;;;1.10;;
47856;SDS011;33618;49.972;8.242;2023-07-29T09:07:05;1.08;;;1.08;;
47856;SDS011;33618;49.972;8.242;2023-07-29T09:09:33;1.67;;;1.02;;
47856;SDS011;33618;49.972;8.242;2023-07-29T09:12:00;1.77;;;1.10;;
47856;SDS011;33618;49.972;8.242;2023-07-29T09:14:27;1.23;;;1.20;;
47856;SDS011;33618;49.972;8.242;2023-07-29T09:16:54;3.28;;;1.13;;
47856;SDS011;33618;49.972;8.242;2023-07-29T09:19:24;1.77;;;1.30;;
47856;SDS011;33618;49.972;8.242;2023-07-29T09:21:52;2.80;;;1.20;;
47856;SDS011;33618;49.972;8.242;2023-07-29T09:24:20;1.10;;;1.10;;
47856;SDS011;33618;49.972;8.242;2023-07-29T09:26:50;1.20;;;1.10;;
47856;SDS011;33618;49.972;8.242;2023-07-29T09:29:23;1.20;;;1.10;;
47856;SDS011;33618;49.972;8.242;2023-07-29T09:31:50;1.30;;;1.20;;
47856;SDS011;33618;49.972;8.242;2023-07-29T09:34:17;1.20;;;1.10;;
47856;SDS011;33618;49.972;8.242;2023-07-29T09:36:44;1.30;;;1.05;;
47856;SDS011;33618;49.972;8.242;2023-07-29T09:39:11;2.88;;;1.20;;
47856;SDS011;33618;49.972;8.242;2023-07-29T09:41:39;1.27;;;1.17;;
47856;SDS011;33618;49.972;8.242;2023-07-29T09:44:06;1.08;;;1.08;;
47856;SDS011;33618;49.972;8.242;2023-07-29T09:46:37;1.23;;;1.13;;
47856;SDS011;33618;49.972;8.242;2023-07-29T09:49:06;1.48;;;1.38;;
47856;SDS011;33618;49.972;8.242;2023-07-29T09:51:39;2.38;;;1.20;;
47856;SDS011;33618;49.972;8.242;2023-07-29T09:54:07;1.13;;;1.10;;
47856;SDS011;33618;49.972;8.242;2023-07-29T09:56:34;2.58;;;1.40;;
47856;SDS011;33618;49.972;8.242;2023-07-29T09:59:07;2.40;;;1.00;;
47856;SDS011;33618;49.972;8.242;2023-07-29T10:01:34;1.00;;;1.00;;
47856;SDS011;33618;49.972;8.242;2023-07-29T10:04:03;1.10;;;1.00;;
47856;SDS011;33618;49.972;8.242;2023-07-29T10:06:32;5.28;;;1.25;;
47856;SDS011;33618;49.972;8.242;2023-07-29T10:09:02;1.30;;;1.20;;
47856;SDS011;33618;49.972;8.242;2023-07-29T10:11:30;1.40;;;1.10;;
47856;SDS011;33618;49.972;8.242;2023-07-29T10:13:59;1.02;;;1.02;;
47856;SDS011;33618;49.972;8.242;2023-07-29T10:16:35;1.40;;;1.30;;
47856;SDS011;33618;49.972;8.242;2023-07-29T10:19:04;1.95;;;1.10;;
47856;SDS011;33618;49.972;8.242;2023-07-29T10:21:33;2.50;;;1.20;;
47856;SDS011;33618;49.972;8.242;2023-07-29T10:24:02;1.90;;;1.55;;
47856;SDS011;33618;49.972;8.242;2023-07-29T10:26:32;1.30;;;1.20;;
47856;SDS011;33618;49.972;8.242;2023-07-29T10:29:01;2.05;;;1.25;;
47856;SDS011;33618;49.972;8.242;2023-07-29T10:31:31;1.27;;;1.20;;
47856;SDS011;33618;49.972;8.242;2023-07-29T10:33:59;1.30;;;1.20;;
47856;SDS011;33618;49.972;8.242;2023-07-29T10:36:27;3.72;;;1.30;;
47856;SDS011;33618;49.972;8.242;2023-07-29T10:38:55;1.30;;;1.20;;
47856;SDS011;33618;49.972;8.242;2023-07-29T10:41:22;1.60;;;1.50;;
47856;SDS011;33618;49.972;8.242;2023-07-29T10:43:49;1.38;;;1.27;;
47856;SDS011;33618;49.972;8.242;2023-07-29T10:46:20;1.30;;;1.30;;
47856;SDS011;33618;49.972;8.242;2023-07-29T10:48:55;3.50;;;1.60;;
47856;SDS011;33618;49.972;8.242;2023-07-29T10:53:57;2.00;;;1.50;;
47856;SDS011;33618;49.972;8.242;2023-07-29T10:56:32;2.92;;;1.40;;
47856;SDS011;33618;49.972;8.242;2023-07-29T11:01:41;1.70;;;1.60;;
47856;SDS011;33618;49.972;8.242;2023-07-29T11:15:27;1.40;;;1.30;;
47856;SDS011;33618;49.972;8.242;2023-07-29T11:20:27;1.30;;;1.20;;
47856;SDS011;33618;49.972;8.242;2023-07-29T11:22:55;1.55;;;1.30;;
47856;SDS011;33618;49.972;8.242;2023-07-29T11:25:24;2.42;;;1.30;;
47856;SDS011;33618;49.972;8.242;2023-07-29T11:27:53;1.80;;;1.20;;
47856;SDS011;33618;49.972;8.242;2023-07-29T11:30:22;1.33;;;1.23;;
47856;SDS011;33618;49.972;8.242;2023-07-29T11:32:52;1.10;;;1.10;;
47856;SDS011;33618;49.972;8.242;2023-07-29T11:35:21;4.35;;;1.40;;
47856;SDS011;33618;49.972;8.242;2023-07-29T11:37:55;1.35;;;1.30;;
47856;SDS011;33618;49.972;8.242;2023-07-29T11:40:24;1.60;;;1.50;;
47856;SDS011;33618;49.972;8.242;2023-07-29T11:42:52;1.15;;;1.10;;
47856;SDS011;33618;49.972;8.242;2023-07-29T11:45:19;1.20;;;1.10;;
47856;SDS011;33618;49.972;8.242;2023-07-29T11:47:49;1.50;;;1.40;;
47856;SDS011;33618;49.972;8.242;2023-07-29T11:50:16;1.40;;;1.30;;
47856;SDS011;33618;49.972;8.242;2023-07-29T11:52:44;1.60;;;1.20;;
47856;SDS011;33618;49.972;8.242;2023-07-29T11:55:12;1.30;;;1.20;;
47856;SDS011;33618;49.972;8.242;2023-07-29T11:57:41;1.23;;;1.20;;
47856;SDS011;33618;49.972;8.242;2023-07-29T12:00:09;1.98;;;1.10;;
47856;SDS011;33618;49.972;8.242;2023-07-29T12:02:39;3.63;;;1.48;;
47856;SDS011;33618;49.972;8.242;2023-07-29T12:05:08;5.45;;;1.40;;
47856;SDS011;33618;49.972;8.242;2023-07-29T12:07:36;1.38;;;1.30;;
47856;SDS011;33618;49.972;8.242;2023-07-29T12:10:05;1.67;;;1.30;;
47856;SDS011;33618;49.972;8.242;2023-07-29T12:12:32;1.20;;;1.10;;
47856;SDS011;33618;49.972;8.242;2023-07-29T12:14:59;1.50;;;1.40;;
47856;SDS011;33618;49.972;8.242;2023-07-29T12:17:27;1.30;;;1.20;;
47856;SDS011;33618;49.972;8.242;2023-07-29T12:19:55;1.50;;;1.30;;
47856;SDS011;33618;49.972;8.242;2023-07-29T12:22:22;1.25;;;1.15;;
47856;SDS011;33618;49.972;8.242;2023-07-29T12:24:50;1.33;;;1.23;;
47856;SDS011;33618;49.972;8.242;2023-07-29T12:27:21;1.20;;;1.20;;
47856;SDS011;33618;49.972;8.242;2023-07-29T12:29:48;1.23;;;1.13;;
47856;SDS011;33618;49.972;8.242;2023-07-29T12:32:18;1.33;;;1.20;;
47856;SDS011;33618;49.972;8.242;2023-07-29T12:34:45;2.75;;;1.08;;
47856;SDS011;33618;49.972;8.242;2023-07-29T12:37:12;1.15;;;1.00;;
47856;SDS011;33618;49.972;8.242;2023-07-29T12:39:40;4.53;;;1.27;;
47856;SDS011;33618;49.972;8.242;2023-07-29T12:42:08;1.27;;;1.27;;
47856;SDS011;33618;49.972;8.242;2023-07-29T12:44:35;1.85;;;1.50;;
47856;SDS011;33618;49.972;8.242;2023-07-29T12:47:04;1.88;;;1.10;;
47856;SDS011;33618;49.972;8.242;2023-07-29T12:49:32;1.00;;;1.00;;
47856;SDS011;33618;49.972;8.242;2023-07-29T12:51:59;1.10;;;1.10;;
47856;SDS011;33618;49.972;8.242;2023-07-29T12:54:26;1.00;;;1.00;;
47856;SDS011;33618;49.972;8.242;2023-07-29T12:56:53;1.40;;;1.30;;
47856;SDS011;33618;49.972;8.242;2023-07-29T12:59:20;2.25;;;1.30;;
47856;SDS011;33618;49.972;8.242;2023-07-29T13:01:47;2.28;;;1.30;;
47856;SDS011;33618;49.972;8.242;2023-07-29T13:04:14;1.10;;;1.10;;
47856;SDS011;33618;49.972;8.242;2023-07-29T13:06:41;1.35;;;1.20;;
47856;SDS011;33618;49.972;8.242;2023-07-29T13:09:08;1.73;;;1.20;;
47856;SDS011;33618;49.972;8.242;2023-07-29T13:11:35;2.70;;;1.20;;
47856;SDS011;33618;49.972;8.242;2023-07-29T13:14:02;1.20;;;1.10;;
47856;SDS011;33618;49.972;8.242;2023-07-29T13:16:29;2.95;;;1.20;;
47856;SDS011;33618;49.972;8.242;2023-07-29T13:18:56;2.55;;;1.30;;
47856;SDS011;33618;49.972;8.242;2023-07-29T13:21:23;2.33;;;1.30;;
47856;SDS011;33618;49.972;8.242;2023-07-29T13:23:50;1.00;;;1.00;;
47856;SDS011;33618;49.972;8.242;2023-07-29T13:26:18;1.85;;;1.30;;
47856;SDS011;33618;49.972;8.242;2023-07-29T13:28:45;1.13;;;1.13;;
47856;SDS011;33618;49.972;8.242;2023-07-29T13:31:11;3.95;;;1.10;;
47856;SDS011;33618;49.972;8.242;2023-07-29T13:33:39;1.30;;;1.20;;
47856;SDS011;33618;49.972;8.242;2023-07-29T13:36:06;1.10;;;1.10;;
47856;SDS011;33618;49.972;8.242;2023-07-29T13:38:34;1.30;;;1.20;;
47856;SDS011;33618;49.972;8.242;2023-07-29T13:41:01;5.88;;;1.40;;
47856;SDS011;33618;49.972;8.242;2023-07-29T13:43:28;1.58;;;1.48;;
47856;SDS011;33618;49.972;8.242;2023-07-29T13:45:55;1.33;;;1.23;;
47856;SDS011;33618;49.972;8.242;2023-07-29T13:48:22;1.35;;;1.27;;
47856;SDS011;33618;49.972;8.242;2023-07-29T13:50:49;1.25;;;1.15;;
47856;SDS011;33618;49.972;8.242;2023-07-29T13:53:17;1.80;;;1.30;;
47856;SDS011;33618;49.972;8.242;2023-07-29T13:55:44;1.23;;;1.23;;
47856;SDS011;33618;49.972;8.242;2023-07-29T13:58:11;1.10;;;1.10;;
47856;SDS011;33618;49.972;8.242;2023-07-29T14:00:37;1.13;;;1.13;;
47856;SDS011;33618;49.972;8.242;2023-07-29T14:03:04;1.40;;;1.30;;
47856;SDS011;33618;49.972;8.242;2023-07-29T14:05:31;1.38;;;1.25;;
47856;SDS011;33618;49.972;8.242;2023-07-29T14:07:58;2.92;;;1.40;;
47856;SDS011;33618;49.972;8.242;2023-07-29T14:10:25;1.63;;;1.27;;
47856;SDS011;33618;49.972;8.242;2023-07-29T14:12:52;1.30;;;1.20;;
47856;SDS011;33618;49.972;8.242;2023-07-29T14:15:20;1.58;;;1.10;;
47856;SDS011;33618;49.972;8.242;2023-07-29T14:17:47;2.15;;;1.25;;
47856;SDS011;33618;49.972;8.242;2023-07-29T14:20:14;1.20;;;1.10;;
47856;SDS011;33618;49.972;8.242;2023-07-29T14:22:41;1.60;;;1.30;;
47856;SDS011;33618;49.972;8.242;2023-07-29T14:25:08;2.50;;;1.50;;
47856;SDS011;33618;49.972;8.242;2023-07-29T14:27:35;1.10;;;1.10;;
47856;SDS011;33618;49.972;8.242;2023-07-29T14:30:03;1.50;;;1.40;;
47856;SDS011;33618;49.972;8.242;2023-07-29T14:32:31;2.05;;;1.20;;
47856;SDS011;33618;49.972;8.242;2023-07-29T14:34:58;1.23;;;1.13;;
47856;SDS011;33618;49.972;8.242;2023-07-29T14:37:30;1.08;;;1.08;;
47856;SDS011;33618;49.972;8.242;2023-07-29T14:39:57;1.30;;;1.20;;
47856;SDS011;33618;49.972;8.242;2023-07-29T14:42:25;1.58;;;1.30;;
47856;SDS011;33618;49.972;8.242;2023-07-29T14:44:53;1.25;;;1.25;;
47856;SDS011;33618;49.972;8.242;2023-07-29T14:47:20;1.40;;;1.30;;
47856;SDS011;33618;49.972;8.242;2023-07-29T14:49:47;1.48;;;1.38;;
47856;SDS011;33618;49.972;8.242;2023-07-29T14:52:14;1.20;;;1.20;;
47856;SDS011;33618;49.972;8.242;2023-07-29T14:54:41;1.30;;;1.20;;
47856;SDS011;33618;49.972;8.242;2023-07-29T14:57:09;2.17;;;1.30;;
47856;SDS011;33618;49.972;8.242;2023-07-29T14:59:36;1.25;;;1.20;;
47856;SDS011;33618;49.972;8.242;2023-07-29T15:02:03;1.40;;;1.30;;
47856;SDS011;33618;49.972;8.242;2023-07-29T15:04:30;1.30;;;1.20;;
47856;SDS011;33618;49.972;8.242;2023-07-29T15:06:57;1.35;;;1.25;;
47856;SDS011;33618;49.972;8.242;2023-07-29T15:09:24;1.67;;;1.17;;
47856;SDS011;33618;49.972;8.242;2023-07-29T15:11:51;1.20;;;1.20;;
47856;SDS011;33618;49.972;8.242;2023-07-29T15:14:18;1.40;;;1.30;;
47856;SDS011;33618;49.972;8.242;2023-07-29T15:16:45;1.30;;;1.25;;
47856;SDS011;33618;49.972;8.242;2023-07-29T15:19:12;2.90;;;1.30;;
47856;SDS011;33618;49.972;8.242;2023-07-29T15:21:43;1.50;;;1.40;;
47856;SDS011;33618;49.972;8.242;2023-07-29T15:24:11;1.33;;;1.23;;
47856;SDS011;33618;49.972;8.242;2023-07-29T15:26:38;1.17;;;1.13;;
47856;SDS011;33618;49.972;8.242;2023-07-29T15:29:05;1.50;;;1.40;;
47856;SDS011;33618;49.972;8.242;2023-07-29T15:31:33;2.97;;;1.75;;
47856;SDS011;33618;49.972;8.242;2023-07-29T15:34:01;1.35;;;1.25;;
47856;SDS011;33618;49.972;8.242;2023-07-29T15:36:28;1.38;;;1.30;;
47856;SDS011;33618;49.972;8.242;2023-07-29T15:38:55;1.63;;;1.40;;
47856;SDS011;33618;49.972;8.242;2023-07-29T15:41:22;1.40;;;1.25;;
47856;SDS011;33618;49.972;8.242;2023-07-29T15:43:49;1.60;;;1.30;;
47856;SDS011;33618;49.972;8.242;2023-07-29T15:46:16;2.05;;;1.10;;
47856;SDS011;33618;49.972;8.242;2023-07-29T15:48:44;2.80;;;1.20;;
47856;SDS011;33618;49.972;8.242;2023-07-29T15:51:10;1.30;;;1.20;;
47856;SDS011;33618;49.972;8.242;2023-07-29T15:53:37;1.02;;;1.02;;
47856;SDS011;33618;49.972;8.242;2023-07-29T15:56:04;1.50;;;1.40;;
47856;SDS011;33618;49.972;8.242;2023-07-29T15:58:34;2.28;;;1.15;;
47856;SDS011;33618;49.972;8.242;2023-07-29T16:01:01;1.40;;;1.30;;
47856;SDS011;33618;49.972;8.242;2023-07-29T16:03:29;2.25;;;1.17;;
47856;SDS011;33618;49.972;8.242;2023-07-29T16:05:56;1.25;;;1.20;;
47856;SDS011;33618;49.972;8.242;2023-07-29T16:08:23;1.73;;;1.27;;
47856;SDS011;33618;49.972;8.242;2023-07-29T16:10:50;1.35;;;1.25;;
47856;SDS011;33618;49.972;8.242;2023-07-29T16:13:17;5.50;;;1.25;;
47856;SDS011;33618;49.972;8.242;2023-07-29T16:15:45;1.10;;;1.00;;
47856;SDS011;33618;49.972;8.242;2023-07-29T16:18:12;1.27;;;1.17;;
47856;SDS011;33618;49.972;8.242;2023-07-29T16:20:39;4.45;;;1.25;;
47856;SDS011;33618;49.972;8.242;2023-07-29T16:23:06;1.60;;;1.35;;
47856;SDS011;33618;49.972;8.242;2023-07-29T16:25:35;1.25;;;1.20;;
47856;SDS011;33618;49.972;8.242;2023-07-29T16:28:02;1.23;;;1.10;;
47856;SDS011;33618;49.972;8.242;2023-07-29T16:30:29;1.30;;;1.30;;
47856;SDS011;33618;49.972;8.242;2023-07-29T16:32:56;1.63;;;1.35;;
47856;SDS011;33618;49.972;8.242;2023-07-29T16:35:23;1.20;;;1.10;;
47856;SDS011;33618;49.972;8.242;2023-07-29T16:37:50;2.50;;;1.20;;
47856;SDS011;33618;49.972;8.242;2023-07-29T16:40:17;1.42;;;1.33;;
47856;SDS011;33618;49.972;8.242;2023-07-29T16:42:43;2.03;;;1.13;;
47856;SDS011;33618;49.972;8.242;2023-07-29T16:45:10;1.83;;;1.20;;
47856;SDS011;33618;49.972;8.242;2023-07-29T16:47:37;1.25;;;1.25;;
47856;SDS011;33618;49.972;8.242;2023-07-29T16:50:04;1.60;;;1.50;;
47856;SDS011;33618;49.972;8.242;2023-07-29T16:52:36;1.40;;;1.20;;
47856;SDS011;33618;49.972;8.242;2023-07-29T16:55:03;1.10;;;1.10;;
47856;SDS011;33618;49.972;8.242;2023-07-29T16:57:30;1.45;;;1.10;;
47856;SDS011;33618;49.972;8.242;2023-07-29T16:59:57;1.30;;;1.25;;
47856;SDS011;33618;49.972;8.242;2023-07-29T17:02:24;1.23;;;1.13;;
47856;SDS011;33618;49.972;8.242;2023-07-29T17:04:51;1.55;;;1.45;;
47856;SDS011;33618;49.972;8.242;2023-07-29T17:07:18;1.40;;;1.30;;
47856;SDS011;33618;49.972;8.242;2023-07-29T17:09:44;1.42;;;1.33;;
47856;SDS011;33618;49.972;8.242;2023-07-29T17:12:14;1.90;;;1.80;;
47856;SDS011;33618;49.972;8.242;2023-07-29T17:14:41;1.70;;;1.60;;
47856;SDS011;33618;49.972;8.242;2023-07-29T17:17:08;3.13;;;1.60;;
47856;SDS011;33618;49.972;8.242;2023-07-29T17:19:35;1.50;;;1.40;;
47856;SDS011;33618;49.972;8.242;2023-07-29T17:22:02;1.40;;;1.30;;
47856;SDS011;33618;49.972;8.242;2023-07-29T17:24:29;1.50;;;1.40;;
47856;SDS011;33618;49.972;8.242;2023-07-29T17:26:56;1.67;;;1.40;;
47856;SDS011;33618;49.972;8.242;2023-07-29T17:29:24;1.35;;;1.33;;
47856;SDS011;33618;49.972;8.242;2023-07-29T17:31:51;1.90;;;1.30;;
47856;SDS011;33618;49.972;8.242;2023-07-29T17:34:18;1.85;;;1.40;;
47856;SDS011;33618;49.972;8.242;2023-07-29T17:36:47;1.50;;;1.40;;
47856;SDS011;33618;49.972;8.242;2023-07-29T17:39:14;1.63;;;1.30;;
47856;SDS011;33618;49.972;8.242;2023-07-29T17:41:40;1.20;;;1.20;;
47856;SDS011;33618;49.972;8.242;2023-07-29T17:44:07;1.10;;;1.10;;
47856;SDS011;33618;49.972;8.242;2023-07-29T17:46:37;1.30;;;1.17;;
47856;SDS011;33618;49.972;8.242;2023-07-29T17:49:04;1.50;;;1.40;;
47856;SDS011;33618;49.972;8.242;2023-07-29T17:51:31;3.65;;;1.23;;
47856;SDS011;33618;49.972;8.242;2023-07-29T17:53:58;1.60;;;1.20;;
47856;SDS011;33618;49.972;8.242;2023-07-29T17:56:25;1.48;;;1.38;;
47856;SDS011;33618;49.972;8.242;2023-07-29T17:58:54;1.30;;;1.20;;
47856;SDS011;33618;49.972;8.242;2023-07-29T18:01:21;1.63;;;1.30;;
47856;SDS011;33618;49.972;8.242;2023-07-29T18:03:48;1.30;;;1.20;;
47856;SDS011;33618;49.972;8.242;2023-07-29T18:06:15;1.40;;;1.30;;
47856;SDS011;33618;49.972;8.242;2023-07-29T18:08:43;1.90;;;1.30;;
47856;SDS011;33618;49.972;8.242;2023-07-29T18:11:10;1.63;;;1.23;;
47856;SDS011;33618;49.972;8.242;2023-07-29T18:13:41;1.25;;;1.25;;
47856;SDS011;33618;49.972;8.242;2023-07-29T18:16:07;1.40;;;1.30;;
47856;SDS011;33618;49.972;8.242;2023-07-29T18:18:35;1.48;;;1.38;;
47856;SDS011;33618;49.972;8.242;2023-07-29T18:21:01;2.58;;;2.17;;
47856;SDS011;33618;49.972;8.242;2023-07-29T18:23:28;2.15;;;1.20;;
47856;SDS011;33618;49.972;8.242;2023-07-29T18:25:55;2.35;;;1.45;;
47856;SDS011;33618;49.972;8.242;2023-07-29T18:28:23;1.30;;;1.20;;
47856;SDS011;33618;49.972;8.242;2023-07-29T18:30:50;1.30;;;1.30;;
47856;SDS011;33618;49.972;8.242;2023-07-29T18:33:17;1.50;;;1.40;;
47856;SDS011;33618;49.972;8.242;2023-07-29T18:35:45;1.45;;;1.35;;
47856;SDS011;33618;49.972;8.242;2023-07-29T18:38:13;1.55;;;1.45;;
47856;SDS011;33618;49.972;8.242;2023-07-29T18:40:39;1.38;;;1.27;;
47856;SDS011;33618;49.972;8.242;2023-07-29T18:43:10;1.45;;;1.35;;
47856;SDS011;33618;49.972;8.242;2023-07-29T18:45:42;1.42;;;1.33;;
47856;SDS011;33618;49.972;8.242;2023-07-29T18:48:23;1.60;;;1.30;;
47856;SDS011;33618;49.972;8.242;2023-07-29T18:50:50;2.13;;;1.30;;
47856;SDS011;33618;49.972;8.242;2023-07-29T18:53:17;1.42;;;1.33;;
47856;SDS011;33618;49.972;8.242;2023-07-29T19:08:04;1.55;;;1.45;;
47856;SDS011;33618;49.972;8.242;2023-07-29T19:10:34;3.05;;;1.50;;
47856;SDS011;33618;49.972;8.242;2023-07-29T19:13:04;12.73;;;11.40;;
47856;SDS011;33618;49.972;8.242;2023-07-29T19:15:32;11.93;;;10.70;;
47856;SDS011;33618;49.972;8.242;2023-07-29T19:18:00;3.30;;;3.08;;
47856;SDS011;33618;49.972;8.242;2023-07-29T19:20:27;2.30;;;2.10;;
47856;SDS011;33618;49.972;8.242;2023-07-29T19:22:56;5.50;;;1.60;;
47856;SDS011;33618;49.972;8.242;2023-07-29T19:25:23;1.90;;;1.70;;
47856;SDS011;33618;49.972;8.242;2023-07-29T19:27:50;1.88;;;1.35;;
47856;SDS011;33618;49.972;8.242;2023-07-29T19:30:17;3.53;;;1.65;;
47856;SDS011;33618;49.972;8.242;2023-07-29T19:32:43;1.50;;;1.40;;
47856;SDS011;33618;49.972;8.242;2023-07-29T19:35:10;1.70;;;1.60;;
47856;SDS011;33618;49.972;8.242;2023-07-29T19:37:37;3.50;;;1.85;;
47856;SDS011;33618;49.972;8.242;2023-07-29T19:40:04;1.90;;;1.80;;
47856;SDS011;33618;49.972;8.242;2023-07-29T19:42:32;1.90;;;1.80;;
47856;SDS011;33618;49.972;8.242;2023-07-29T19:44:59;1.63;;;1.48;;
47856;SDS011;33618;49.972;8.242;2023-07-29T19:47:25;1.98;;;1.70;;
47856;SDS011;33618;49.972;8.242;2023-07-29T19:49:52;1.75;;;1.65;;
47856;SDS011;33618;49.972;8.242;2023-07-29T19:52:19;2.33;;;1.50;;
47856;SDS011;33618;49.972;8.242;2023-07-29T19:54:46;1.60;;;1.50;;
47856;SDS011;33618;49.972;8.242;2023-07-29T19:57:13;2.10;;;1.50;;
47856;SDS011;33618;49.972;8.242;2023-07-29T19:59:40;1.50;;;1.40;;
47856;SDS011;33618;49.972;8.242;2023-07-29T20:02:14;1.60;;;1.50;;
47856;SDS011;33618;49.972;8.242;2023-07-29T20:04:42;1.50;;;1.40;;
47856;SDS011;33618;49.972;8.242;2023-07-29T20:07:14;1.60;;;1.50;;
47856;SDS011;33618;49.972;8.242;2023-07-29T20:09:40;1.75;;;1.50;;
47856;SDS011;33618;49.972;8.242;2023-07-29T20:12:08;4.10;;;1.50;;
47856;SDS011;33618;49.972;8.242;2023-07-29T20:14:34;2.08;;;1.73;;
47856;SDS011;33618;49.972;8.242;2023-07-29T20:17:01;1.60;;;1.50;;
47856;SDS011;33618;49.972;8.242;2023-07-29T20:19:28;2.25;;;1.80;;
47856;SDS011;33618;49.972;8.242;2023-07-29T20:21:55;2.08;;;1.50;;
47856;SDS011;33618;49.972;8.242;2023-07-29T20:24:22;2.88;;;2.45;;
47856;SDS011;33618;49.972;8.242;2023-07-29T20:26:49;1.90;;;1.80;;
47856;SDS011;33618;49.972;8.242;2023-07-29T20:29:16;2.60;;;1.73;;
47856;SDS011;33618;49.972;8.242;2023-07-29T20:31:42;1.95;;;1.48;;
47856;SDS011;33618;49.972;8.242;2023-07-29T20:34:09;1.90;;;1.70;;
47856;SDS011;33618;49.972;8.242;2023-07-29T20:36:36;1.85;;;1.75;;
47856;SDS011;33618;49.972;8.242;2023-07-29T20:39:03;3.08;;;1.75;;
47856;SDS011;33618;49.972;8.242;2023-07-29T20:41:29;3.65;;;1.92;;
47856;SDS011;33618;49.972;8.242;2023-07-29T20:43:56;1.80;;;1.70;;
47856;SDS011;33618;49.972;8.242;2023-07-29T20:46:23;2.78;;;1.70;;
47856;SDS011;33618;49.972;8.242;2023-07-29T20:48:51;1.88;;;1.77;;
47856;SDS011;33618;49.972;8.242;2023-07-29T20:51:18;4.05;;;1.90;;
47856;SDS011;33618;49.972;8.242;2023-07-29T20:53:45;1.83;;;1.73;;
47856;SDS011;33618;49.972;8.242;2023-07-29T20:56:13;1.88;;;1.77;;
47856;SDS011;33618;49.972;8.242;2023-07-29T20:58:41;1.90;;;1.77;;
47856;SDS011;33618;49.972;8.242;2023-07-29T21:01:08;2.35;;;1.60;;
47856;SDS011;33618;49.972;8.242;2023-07-29T21:03:34;2.88;;;1.77;;
47856;SDS011;33618;49.972;8.242;2023-07-29T21:06:02;1.95;;;1.85;;
47856;SDS011;33618;49.972;8.242;2023-07-29T21:08:29;2.13;;;1.90;;
47856;SDS011;33618;49.972;8.242;2023-07-29T21:10:56;1.70;;;1.60;;
47856;SDS011;33618;49.972;8.242;2023-07-29T21:13:22;2.15;;;1.70;;
47856;SDS011;33618;49.972;8.242;2023-07-29T21:15:53;2.55;;;1.77;;
47856;SDS011;33618;49.972;8.242;2023-07-29T21:18:21;2.08;;;1.88;;
47856;SDS011;33618;49.972;8.242;2023-07-29T21:20:48;1.70;;;1.60;;
47856;SDS011;33618;49.972;8.242;2023-07-29T21:23:16;1.77;;;1.50;;
47856;SDS011;33618;49.972;8.242;2023-07-29T21:25:46;1.90;;;1.80;;
47856;SDS011;33618;49.972;8.242;2023-07-29T21:28:15;1.90;;;1.80;;